sensor_id;sensor_type;location;lat;lon;timestamp;P1;durP1;ratioP1;P2;durP2;ratioP2
31037;SDS011;17702;47.590;7.666;2022-08-23T00:00:45;6.40;;;4.00;;
31037;SDS011;17702;47.590;7.666;2022-08-23T00:03:10;4.95;;;4.55;;
31037;SDS011;17702;47.590;7.666;2022-08-23T00:05:37;6.60;;;4.35;;
31037;SDS011;17702;47.590;7.666;2022-08-23T00:08:02;6.38;;;3.35;;
31037;SDS011;17702;47.590;7.666;2022-08-23T00:10:28;5.30;;;3.85;;
31037;SDS011;17702;47.590;7.666;2022-08-23T00:12:54;4.18;;;3.50;;
31037;SDS011;17702;47.590;7.666;2022-08-23T00:15:20;9.38;;;4.05;;
31037;SDS011;17702;47.590;7.666;2022-08-23T00:17:47;7.38;;;3.67;;
31037;SDS011;17702;47.590;7.666;2022-08-23T00:20:14;6.55;;;3.92;;
31037;SDS011;17702;47.590;7.666;2022-08-23T00:22:41;3.33;;;3.03;;
31037;SDS011;17702;47.590;7.666;2022-08-23T00:25:08;9.10;;;3.63;;
31037;SDS011;17702;47.590;7.666;2022-08-23T00:27:35;7.47;;;3.70;;
31037;SDS011;17702;47.590;7.666;2022-08-23T00:30:02;8.32;;;3.83;;
31037;SDS011;17702;47.590;7.666;2022-08-23T00:32:33;5.05;;;3.72;;
31037;SDS011;17702;47.590;7.666;2022-08-23T00:35:00;3.97;;;3.28;;
31037;SDS011;17702;47.590;7.666;2022-08-23T00:37:27;4.28;;;3.88;;
31037;SDS011;17702;47.590;7.666;2022-08-23T00:39:55;5.72;;;3.67;;
31037;SDS011;17702;47.590;7.666;2022-08-23T00:42:33;4.47;;;3.97;;
31037;SDS011;17702;47.590;7.666;2022-08-23T00:45:49;5.82;;;3.92;;
31037;SDS011;17702;47.590;7.666;2022-08-23T00:48:34;4.40;;;3.97;;
31037;SDS011;17702;47.590;7.666;2022-08-23T00:51:04;6.30;;;3.88;;
31037;SDS011;17702;47.590;7.666;2022-08-23T00:53:40;6.80;;;4.00;;
31037;SDS011;17702;47.590;7.666;2022-08-23T00:56:10;4.85;;;4.40;;
31037;SDS011;17702;47.590;7.666;2022-08-23T00:58:37;6.72;;;3.75;;
31037;SDS011;17702;47.590;7.666;2022-08-23T01:01:03;3.65;;;3.40;;
31037;SDS011;17702;47.590;7.666;2022-08-23T01:03:31;5.72;;;3.92;;
31037;SDS011;17702;47.590;7.666;2022-08-23T01:08:42;5.95;;;4.00;;
31037;SDS011;17702;47.590;7.666;2022-08-23T01:11:17;5.95;;;4.05;;
31037;SDS011;17702;47.590;7.666;2022-08-23T01:13:55;4.30;;;3.92;;
31037;SDS011;17702;47.590;7.666;2022-08-23T01:16:26;6.95;;;4.20;;
31037;SDS011;17702;47.590;7.666;2022-08-23T01:18:57;4.85;;;3.53;;
31037;SDS011;17702;47.590;7.666;2022-08-23T01:24:02;5.00;;;4.43;;
31037;SDS011;17702;47.590;7.666;2022-08-23T01:26:29;4.47;;;3.50;;
31037;SDS011;17702;47.590;7.666;2022-08-23T01:28:59;7.47;;;4.03;;
31037;SDS011;17702;47.590;7.666;2022-08-23T01:31:27;4.32;;;3.92;;
31037;SDS011;17702;47.590;7.666;2022-08-23T01:33:55;4.72;;;3.85;;
31037;SDS011;17702;47.590;7.666;2022-08-23T01:36:24;7.85;;;4.28;;
31037;SDS011;17702;47.590;7.666;2022-08-23T01:38:50;7.00;;;4.13;;
31037;SDS011;17702;47.590;7.666;2022-08-23T01:41:15;5.30;;;4.07;;
31037;SDS011;17702;47.590;7.666;2022-08-23T01:43:41;4.88;;;4.38;;
31037;SDS011;17702;47.590;7.666;2022-08-23T01:46:08;4.35;;;4.05;;
31037;SDS011;17702;47.590;7.666;2022-08-23T01:48:35;6.57;;;3.67;;
31037;SDS011;17702;47.590;7.666;2022-08-23T01:51:02;9.73;;;4.28;;
31037;SDS011;17702;47.590;7.666;2022-08-23T01:53:28;5.45;;;4.20;;
31037;SDS011;17702;47.590;7.666;2022-08-23T01:55:54;6.32;;;3.72;;
31037;SDS011;17702;47.590;7.666;2022-08-23T01:58:20;7.15;;;4.15;;
31037;SDS011;17702;47.590;7.666;2022-08-23T02:00:46;4.95;;;4.15;;
31037;SDS011;17702;47.590;7.666;2022-08-23T02:03:11;3.78;;;3.47;;
31037;SDS011;17702;47.590;7.666;2022-08-23T02:05:40;4.45;;;4.10;;
31037;SDS011;17702;47.590;7.666;2022-08-23T02:08:07;7.93;;;4.20;;
31037;SDS011;17702;47.590;7.666;2022-08-23T02:10:52;6.03;;;4.00;;
31037;SDS011;17702;47.590;7.666;2022-08-23T02:13:18;6.22;;;4.28;;
31037;SDS011;17702;47.590;7.666;2022-08-23T02:15:45;5.43;;;4.38;;
31037;SDS011;17702;47.590;7.666;2022-08-23T02:18:14;6.63;;;4.35;;
31037;SDS011;17702;47.590;7.666;2022-08-23T02:20:44;4.75;;;4.35;;
31037;SDS011;17702;47.590;7.666;2022-08-23T02:23:10;5.20;;;4.75;;
31037;SDS011;17702;47.590;7.666;2022-08-23T02:25:36;7.22;;;4.57;;
31037;SDS011;17702;47.590;7.666;2022-08-23T02:28:02;5.55;;;4.65;;
31037;SDS011;17702;47.590;7.666;2022-08-23T02:30:29;7.10;;;4.50;;
31037;SDS011;17702;47.590;7.666;2022-08-23T02:32:55;5.75;;;4.75;;
31037;SDS011;17702;47.590;7.666;2022-08-23T02:35:20;10.38;;;5.03;;
31037;SDS011;17702;47.590;7.666;2022-08-23T02:37:47;5.30;;;4.75;;
31037;SDS011;17702;47.590;7.666;2022-08-23T02:40:12;7.32;;;4.47;;
31037;SDS011;17702;47.590;7.666;2022-08-23T02:42:38;11.93;;;4.50;;
31037;SDS011;17702;47.590;7.666;2022-08-23T02:45:04;5.65;;;5.15;;
31037;SDS011;17702;47.590;7.666;2022-08-23T02:47:32;5.60;;;4.60;;
31037;SDS011;17702;47.590;7.666;2022-08-23T02:50:01;6.53;;;4.40;;
31037;SDS011;17702;47.590;7.666;2022-08-23T02:52:31;5.30;;;4.80;;
31037;SDS011;17702;47.590;7.666;2022-08-23T02:54:57;4.63;;;4.30;;
31037;SDS011;17702;47.590;7.666;2022-08-23T02:57:24;6.05;;;4.85;;
31037;SDS011;17702;47.590;7.666;2022-08-23T02:59:50;5.85;;;5.15;;
31037;SDS011;17702;47.590;7.666;2022-08-23T03:02:16;5.35;;;4.03;;
31037;SDS011;17702;47.590;7.666;2022-08-23T03:04:42;8.52;;;4.53;;
31037;SDS011;17702;47.590;7.666;2022-08-23T03:07:08;5.47;;;4.95;;
31037;SDS011;17702;47.590;7.666;2022-08-23T03:09:33;6.25;;;4.93;;
31037;SDS011;17702;47.590;7.666;2022-08-23T03:11:59;4.90;;;4.50;;
31037;SDS011;17702;47.590;7.666;2022-08-23T03:14:25;5.10;;;4.60;;
31037;SDS011;17702;47.590;7.666;2022-08-23T03:16:51;4.95;;;4.43;;
31037;SDS011;17702;47.590;7.666;2022-08-23T03:19:18;5.75;;;5.07;;
31037;SDS011;17702;47.590;7.666;2022-08-23T03:21:43;4.70;;;4.30;;
31037;SDS011;17702;47.590;7.666;2022-08-23T03:24:09;8.93;;;4.65;;
31037;SDS011;17702;47.590;7.666;2022-08-23T03:26:35;5.13;;;4.70;;
31037;SDS011;17702;47.590;7.666;2022-08-23T03:29:00;5.07;;;4.70;;
31037;SDS011;17702;47.590;7.666;2022-08-23T03:31:26;5.38;;;4.88;;
31037;SDS011;17702;47.590;7.666;2022-08-23T03:33:52;6.47;;;5.18;;
31037;SDS011;17702;47.590;7.666;2022-08-23T03:36:18;6.35;;;4.72;;
31037;SDS011;17702;47.590;7.666;2022-08-23T03:38:44;6.90;;;5.15;;
31037;SDS011;17702;47.590;7.666;2022-08-23T03:41:09;4.65;;;4.20;;
31037;SDS011;17702;47.590;7.666;2022-08-23T03:43:36;9.45;;;5.90;;
31037;SDS011;17702;47.590;7.666;2022-08-23T03:46:03;5.47;;;5.07;;
31037;SDS011;17702;47.590;7.666;2022-08-23T03:48:30;6.53;;;4.53;;
31037;SDS011;17702;47.590;7.666;2022-08-23T03:50:55;8.73;;;4.55;;
31037;SDS011;17702;47.590;7.666;2022-08-23T03:53:21;4.90;;;4.53;;
31037;SDS011;17702;47.590;7.666;2022-08-23T03:55:48;5.03;;;4.53;;
31037;SDS011;17702;47.590;7.666;2022-08-23T03:58:14;9.68;;;4.93;;
31037;SDS011;17702;47.590;7.666;2022-08-23T04:00:41;6.65;;;4.78;;
31037;SDS011;17702;47.590;7.666;2022-08-23T04:03:06;6.03;;;4.78;;
31037;SDS011;17702;47.590;7.666;2022-08-23T04:05:32;7.32;;;5.00;;
31037;SDS011;17702;47.590;7.666;2022-08-23T04:07:58;10.32;;;4.97;;
31037;SDS011;17702;47.590;7.666;2022-08-23T04:10:25;4.88;;;4.45;;
31037;SDS011;17702;47.590;7.666;2022-08-23T04:12:51;7.85;;;4.60;;
31037;SDS011;17702;47.590;7.666;2022-08-23T04:15:18;5.63;;;4.95;;
31037;SDS011;17702;47.590;7.666;2022-08-23T04:17:44;5.30;;;4.90;;
31037;SDS011;17702;47.590;7.666;2022-08-23T04:20:10;5.10;;;4.70;;
31037;SDS011;17702;47.590;7.666;2022-08-23T04:22:36;8.75;;;4.68;;
31037;SDS011;17702;47.590;7.666;2022-08-23T04:25:01;5.32;;;4.72;;
31037;SDS011;17702;47.590;7.666;2022-08-23T04:27:27;31.15;;;27.38;;
31037;SDS011;17702;47.590;7.666;2022-08-23T04:29:53;18.20;;;12.95;;
31037;SDS011;17702;47.590;7.666;2022-08-23T04:32:19;6.22;;;5.75;;
31037;SDS011;17702;47.590;7.666;2022-08-23T04:34:45;7.78;;;5.30;;
31037;SDS011;17702;47.590;7.666;2022-08-23T04:37:13;7.07;;;5.35;;
31037;SDS011;17702;47.590;7.666;2022-08-23T04:39:39;5.00;;;4.60;;
31037;SDS011;17702;47.590;7.666;2022-08-23T04:42:24;5.78;;;5.38;;
31037;SDS011;17702;47.590;7.666;2022-08-23T04:44:49;7.40;;;5.28;;
31037;SDS011;17702;47.590;7.666;2022-08-23T04:47:15;11.68;;;5.38;;
31037;SDS011;17702;47.590;7.666;2022-08-23T04:49:41;8.48;;;5.80;;
31037;SDS011;17702;47.590;7.666;2022-08-23T04:52:07;6.22;;;5.63;;
31037;SDS011;17702;47.590;7.666;2022-08-23T04:54:33;6.35;;;5.72;;
31037;SDS011;17702;47.590;7.666;2022-08-23T04:56:58;7.15;;;5.63;;
31037;SDS011;17702;47.590;7.666;2022-08-23T04:59:24;6.00;;;5.38;;
31037;SDS011;17702;47.590;7.666;2022-08-23T05:01:50;5.95;;;5.45;;
31037;SDS011;17702;47.590;7.666;2022-08-23T05:04:16;6.15;;;5.30;;
31037;SDS011;17702;47.590;7.666;2022-08-23T05:06:42;7.55;;;4.65;;
31037;SDS011;17702;47.590;7.666;2022-08-23T05:09:09;6.65;;;5.60;;
31037;SDS011;17702;47.590;7.666;2022-08-23T05:11:34;7.28;;;5.82;;
31037;SDS011;17702;47.590;7.666;2022-08-23T05:14:00;10.23;;;5.15;;
31037;SDS011;17702;47.590;7.666;2022-08-23T05:16:26;6.63;;;4.95;;
31037;SDS011;17702;47.590;7.666;2022-08-23T05:18:51;8.80;;;5.20;;
31037;SDS011;17702;47.590;7.666;2022-08-23T05:21:18;5.78;;;5.25;;
31037;SDS011;17702;47.590;7.666;2022-08-23T05:23:45;7.50;;;4.90;;
31037;SDS011;17702;47.590;7.666;2022-08-23T05:26:11;5.90;;;5.30;;
31037;SDS011;17702;47.590;7.666;2022-08-23T05:28:39;8.35;;;5.10;;
31037;SDS011;17702;47.590;7.666;2022-08-23T05:31:08;5.85;;;4.60;;
31037;SDS011;17702;47.590;7.666;2022-08-23T05:33:34;7.03;;;5.07;;
31037;SDS011;17702;47.590;7.666;2022-08-23T05:36:01;8.38;;;5.47;;
31037;SDS011;17702;47.590;7.666;2022-08-23T05:38:28;5.40;;;4.90;;
31037;SDS011;17702;47.590;7.666;2022-08-23T05:40:55;9.23;;;4.95;;
31037;SDS011;17702;47.590;7.666;2022-08-23T05:43:22;7.72;;;5.03;;
31037;SDS011;17702;47.590;7.666;2022-08-23T05:45:58;8.20;;;5.38;;
31037;SDS011;17702;47.590;7.666;2022-08-23T05:48:32;6.00;;;5.40;;
31037;SDS011;17702;47.590;7.666;2022-08-23T05:51:15;7.88;;;5.43;;
31037;SDS011;17702;47.590;7.666;2022-08-23T05:53:41;7.50;;;6.05;;
31037;SDS011;17702;47.590;7.666;2022-08-23T05:56:17;8.55;;;5.65;;
31037;SDS011;17702;47.590;7.666;2022-08-23T05:58:45;5.68;;;5.18;;
31037;SDS011;17702;47.590;7.666;2022-08-23T06:01:13;7.05;;;5.22;;
31037;SDS011;17702;47.590;7.666;2022-08-23T06:03:39;7.20;;;6.25;;
31037;SDS011;17702;47.590;7.666;2022-08-23T06:06:05;6.47;;;5.32;;
31037;SDS011;17702;47.590;7.666;2022-08-23T06:08:32;10.57;;;7.05;;
31037;SDS011;17702;47.590;7.666;2022-08-23T06:11:02;8.05;;;5.93;;
31037;SDS011;17702;47.590;7.666;2022-08-23T06:13:29;5.45;;;4.95;;
31037;SDS011;17702;47.590;7.666;2022-08-23T06:15:55;7.13;;;5.88;;
31037;SDS011;17702;47.590;7.666;2022-08-23T06:18:22;5.70;;;5.20;;
31037;SDS011;17702;47.590;7.666;2022-08-23T06:20:57;6.03;;;5.43;;
31037;SDS011;17702;47.590;7.666;2022-08-23T06:23:26;11.93;;;5.68;;
31037;SDS011;17702;47.590;7.666;2022-08-23T06:25:52;7.43;;;5.45;;
31037;SDS011;17702;47.590;7.666;2022-08-23T06:28:18;7.57;;;5.95;;
31037;SDS011;17702;47.590;7.666;2022-08-23T06:30:43;6.32;;;4.72;;
31037;SDS011;17702;47.590;7.666;2022-08-23T06:33:10;11.98;;;5.40;;
31037;SDS011;17702;47.590;7.666;2022-08-23T06:35:36;14.07;;;5.05;;
31037;SDS011;17702;47.590;7.666;2022-08-23T06:38:02;11.65;;;5.07;;
31037;SDS011;17702;47.590;7.666;2022-08-23T06:40:28;5.85;;;5.32;;
31037;SDS011;17702;47.590;7.666;2022-08-23T06:42:54;7.78;;;5.47;;
31037;SDS011;17702;47.590;7.666;2022-08-23T06:45:19;8.00;;;4.90;;
31037;SDS011;17702;47.590;7.666;2022-08-23T06:47:46;8.90;;;5.57;;
31037;SDS011;17702;47.590;7.666;2022-08-23T06:50:12;8.20;;;6.30;;
31037;SDS011;17702;47.590;7.666;2022-08-23T06:52:38;5.95;;;5.32;;
31037;SDS011;17702;47.590;7.666;2022-08-23T06:55:03;5.72;;;5.20;;
31037;SDS011;17702;47.590;7.666;2022-08-23T06:57:29;6.50;;;4.93;;
31037;SDS011;17702;47.590;7.666;2022-08-23T06:59:56;5.68;;;5.18;;
31037;SDS011;17702;47.590;7.666;2022-08-23T07:02:22;9.88;;;5.25;;
31037;SDS011;17702;47.590;7.666;2022-08-23T07:04:47;5.43;;;4.93;;
31037;SDS011;17702;47.590;7.666;2022-08-23T07:07:17;5.38;;;4.88;;
31037;SDS011;17702;47.590;7.666;2022-08-23T07:09:43;5.68;;;5.15;;
31037;SDS011;17702;47.590;7.666;2022-08-23T07:12:09;8.68;;;5.30;;
31037;SDS011;17702;47.590;7.666;2022-08-23T07:14:35;6.75;;;5.20;;
31037;SDS011;17702;47.590;7.666;2022-08-23T07:17:02;10.82;;;5.30;;
31037;SDS011;17702;47.590;7.666;2022-08-23T07:19:29;8.50;;;5.43;;
31037;SDS011;17702;47.590;7.666;2022-08-23T07:21:58;11.93;;;6.38;;
31037;SDS011;17702;47.590;7.666;2022-08-23T07:24:24;12.50;;;5.13;;
31037;SDS011;17702;47.590;7.666;2022-08-23T07:26:51;11.70;;;5.18;;
31037;SDS011;17702;47.590;7.666;2022-08-23T07:29:18;28.80;;;5.85;;
31037;SDS011;17702;47.590;7.666;2022-08-23T07:31:52;7.43;;;4.40;;
31037;SDS011;17702;47.590;7.666;2022-08-23T07:34:20;4.65;;;4.30;;
31037;SDS011;17702;47.590;7.666;2022-08-23T07:36:47;8.57;;;4.68;;
31037;SDS011;17702;47.590;7.666;2022-08-23T07:39:13;7.68;;;4.20;;
31037;SDS011;17702;47.590;7.666;2022-08-23T07:41:41;5.07;;;4.20;;
31037;SDS011;17702;47.590;7.666;2022-08-23T07:44:08;4.70;;;4.30;;
31037;SDS011;17702;47.590;7.666;2022-08-23T07:46:35;4.57;;;4.20;;
31037;SDS011;17702;47.590;7.666;2022-08-23T07:49:04;4.50;;;4.10;;
31037;SDS011;17702;47.590;7.666;2022-08-23T07:51:31;6.50;;;4.53;;
31037;SDS011;17702;47.590;7.666;2022-08-23T07:53:59;5.88;;;4.05;;
31037;SDS011;17702;47.590;7.666;2022-08-23T07:56:25;4.40;;;3.28;;
31037;SDS011;17702;47.590;7.666;2022-08-23T07:58:51;12.07;;;4.30;;
31037;SDS011;17702;47.590;7.666;2022-08-23T08:01:21;7.50;;;4.45;;
31037;SDS011;17702;47.590;7.666;2022-08-23T08:03:50;4.50;;;3.08;;
31037;SDS011;17702;47.590;7.666;2022-08-23T08:06:19;9.13;;;3.85;;
31037;SDS011;17702;47.590;7.666;2022-08-23T08:08:46;4.53;;;3.00;;
31037;SDS011;17702;47.590;7.666;2022-08-23T08:11:14;4.03;;;3.50;;
31037;SDS011;17702;47.590;7.666;2022-08-23T08:13:43;3.28;;;2.97;;
31037;SDS011;17702;47.590;7.666;2022-08-23T08:18:50;4.97;;;3.33;;
31037;SDS011;17702;47.590;7.666;2022-08-23T08:21:17;2.67;;;2.47;;
31037;SDS011;17702;47.590;7.666;2022-08-23T08:23:43;4.05;;;2.80;;
31037;SDS011;17702;47.590;7.666;2022-08-23T08:26:09;5.80;;;3.58;;
31037;SDS011;17702;47.590;7.666;2022-08-23T08:28:35;4.80;;;3.22;;
31037;SDS011;17702;47.590;7.666;2022-08-23T08:31:03;6.78;;;3.10;;
31037;SDS011;17702;47.590;7.666;2022-08-23T08:33:29;4.10;;;3.05;;
31037;SDS011;17702;47.590;7.666;2022-08-23T08:35:56;5.10;;;3.30;;
31037;SDS011;17702;47.590;7.666;2022-08-23T08:38:22;3.55;;;3.25;;
31037;SDS011;17702;47.590;7.666;2022-08-23T08:40:49;6.28;;;3.05;;
31037;SDS011;17702;47.590;7.666;2022-08-23T08:46:22;5.03;;;3.30;;
31037;SDS011;17702;47.590;7.666;2022-08-23T08:48:58;5.55;;;3.08;;
31037;SDS011;17702;47.590;7.666;2022-08-23T08:51:49;4.03;;;3.10;;
31037;SDS011;17702;47.590;7.666;2022-08-23T08:54:20;4.80;;;3.00;;
31037;SDS011;17702;47.590;7.666;2022-08-23T08:56:50;3.15;;;2.95;;
31037;SDS011;17702;47.590;7.666;2022-08-23T08:59:20;6.18;;;2.78;;
31037;SDS011;17702;47.590;7.666;2022-08-23T09:01:50;3.35;;;2.92;;
31037;SDS011;17702;47.590;7.666;2022-08-23T09:04:17;6.22;;;3.00;;
31037;SDS011;17702;47.590;7.666;2022-08-23T09:18:17;3.20;;;2.78;;
31037;SDS011;17702;47.590;7.666;2022-08-23T09:20:44;3.53;;;2.42;;
31037;SDS011;17702;47.590;7.666;2022-08-23T09:23:16;4.50;;;2.47;;
31037;SDS011;17702;47.590;7.666;2022-08-23T09:25:59;2.47;;;2.28;;
31037;SDS011;17702;47.590;7.666;2022-08-23T09:28:29;1.90;;;1.80;;
31037;SDS011;17702;47.590;7.666;2022-08-23T09:30:58;3.08;;;2.63;;
31037;SDS011;17702;47.590;7.666;2022-08-23T09:33:45;3.40;;;2.33;;
31037;SDS011;17702;47.590;7.666;2022-08-23T09:38:51;4.28;;;2.35;;
31037;SDS011;17702;47.590;7.666;2022-08-23T09:41:33;2.08;;;1.98;;
31037;SDS011;17702;47.590;7.666;2022-08-23T09:44:04;2.42;;;2.22;;
31037;SDS011;17702;47.590;7.666;2022-08-23T09:46:34;4.95;;;2.15;;
31037;SDS011;17702;47.590;7.666;2022-08-23T09:51:54;3.38;;;2.58;;
31037;SDS011;17702;47.590;7.666;2022-08-23T09:56:59;4.63;;;2.28;;
31037;SDS011;17702;47.590;7.666;2022-08-23T10:01:53;1.83;;;1.63;;
31037;SDS011;17702;47.590;7.666;2022-08-23T10:12:54;3.42;;;1.70;;
31037;SDS011;17702;47.590;7.666;2022-08-23T10:15:28;4.13;;;1.50;;
31037;SDS011;17702;47.590;7.666;2022-08-23T10:20:46;2.22;;;1.83;;
31037;SDS011;17702;47.590;7.666;2022-08-23T10:26:21;3.55;;;1.58;;
31037;SDS011;17702;47.590;7.666;2022-08-23T10:28:59;2.08;;;1.52;;
31037;SDS011;17702;47.590;7.666;2022-08-23T10:34:57;3.60;;;1.77;;
31037;SDS011;17702;47.590;7.666;2022-08-23T10:40:27;2.75;;;1.42;;
31037;SDS011;17702;47.590;7.666;2022-08-23T10:45:54;4.82;;;1.70;;
31037;SDS011;17702;47.590;7.666;2022-08-23T10:48:28;2.15;;;1.95;;
31037;SDS011;17702;47.590;7.666;2022-08-23T10:50:59;4.20;;;1.92;;
31037;SDS011;17702;47.590;7.666;2022-08-23T10:53:35;3.95;;;1.70;;
31037;SDS011;17702;47.590;7.666;2022-08-23T10:56:13;1.80;;;1.70;;
31037;SDS011;17702;47.590;7.666;2022-08-23T10:58:46;4.15;;;1.95;;
31037;SDS011;17702;47.590;7.666;2022-08-23T11:01:27;2.67;;;1.92;;
31037;SDS011;17702;47.590;7.666;2022-08-23T11:14:10;4.65;;;1.83;;
31037;SDS011;17702;47.590;7.666;2022-08-23T11:16:58;3.15;;;1.88;;
31037;SDS011;17702;47.590;7.666;2022-08-23T11:22:32;3.55;;;2.60;;
31037;SDS011;17702;47.590;7.666;2022-08-23T11:27:44;3.53;;;2.35;;
31037;SDS011;17702;47.590;7.666;2022-08-23T11:35:40;6.13;;;2.87;;
31037;SDS011;17702;47.590;7.666;2022-08-23T11:43:43;6.18;;;2.30;;
31037;SDS011;17702;47.590;7.666;2022-08-23T11:51:38;2.17;;;1.90;;
31037;SDS011;17702;47.590;7.666;2022-08-23T11:54:46;15.13;;;3.30;;
31037;SDS011;17702;47.590;7.666;2022-08-23T12:00:54;4.72;;;1.75;;
31037;SDS011;17702;47.590;7.666;2022-08-23T12:03:35;2.10;;;1.90;;
31037;SDS011;17702;47.590;7.666;2022-08-23T12:09:12;3.47;;;1.70;;
31037;SDS011;17702;47.590;7.666;2022-08-23T12:19:47;2.00;;;1.50;;
31037;SDS011;17702;47.590;7.666;2022-08-23T12:22:19;2.20;;;2.00;;
31037;SDS011;17702;47.590;7.666;2022-08-23T12:38:09;3.67;;;1.50;;
31037;SDS011;17702;47.590;7.666;2022-08-23T12:40:51;3.20;;;1.90;;
31037;SDS011;17702;47.590;7.666;2022-08-23T12:43:19;3.50;;;1.70;;
31037;SDS011;17702;47.590;7.666;2022-08-23T12:45:51;2.70;;;1.40;;
31037;SDS011;17702;47.590;7.666;2022-08-23T12:48:20;2.45;;;1.42;;
31037;SDS011;17702;47.590;7.666;2022-08-23T12:50:52;4.63;;;1.48;;
31037;SDS011;17702;47.590;7.666;2022-08-23T12:53:31;2.97;;;1.60;;
31037;SDS011;17702;47.590;7.666;2022-08-23T12:56:01;1.80;;;1.13;;
31037;SDS011;17702;47.590;7.666;2022-08-23T12:58:30;1.63;;;1.40;;
31037;SDS011;17702;47.590;7.666;2022-08-23T13:00:59;2.08;;;1.40;;
31037;SDS011;17702;47.590;7.666;2022-08-23T13:03:29;3.10;;;1.45;;
31037;SDS011;17702;47.590;7.666;2022-08-23T13:06:03;1.08;;;1.02;;
31037;SDS011;17702;47.590;7.666;2022-08-23T13:08:40;1.30;;;1.20;;
31037;SDS011;17702;47.590;7.666;2022-08-23T13:11:13;2.13;;;1.35;;
31037;SDS011;17702;47.590;7.666;2022-08-23T13:13:42;1.45;;;1.35;;
31037;SDS011;17702;47.590;7.666;2022-08-23T13:19:09;2.08;;;1.20;;
31037;SDS011;17702;47.590;7.666;2022-08-23T13:22:08;2.55;;;1.38;;
31037;SDS011;17702;47.590;7.666;2022-08-23T13:24:36;1.73;;;1.30;;
31037;SDS011;17702;47.590;7.666;2022-08-23T13:27:10;3.70;;;1.42;;
31037;SDS011;17702;47.590;7.666;2022-08-23T13:29:52;1.15;;;1.02;;
31037;SDS011;17702;47.590;7.666;2022-08-23T13:32:33;1.95;;;1.23;;
31037;SDS011;17702;47.590;7.666;2022-08-23T13:37:50;1.80;;;1.70;;
31037;SDS011;17702;47.590;7.666;2022-08-23T13:40:22;1.40;;;1.25;;
31037;SDS011;17702;47.590;7.666;2022-08-23T13:45:31;1.52;;;1.23;;
31037;SDS011;17702;47.590;7.666;2022-08-23T13:50:38;1.85;;;1.20;;
31037;SDS011;17702;47.590;7.666;2022-08-23T13:53:05;1.90;;;1.40;;
31037;SDS011;17702;47.590;7.666;2022-08-23T13:55:48;11.00;;;1.77;;
31037;SDS011;17702;47.590;7.666;2022-08-23T13:58:28;4.40;;;1.17;;
31037;SDS011;17702;47.590;7.666;2022-08-23T14:00:57;2.70;;;0.95;;
31037;SDS011;17702;47.590;7.666;2022-08-23T14:03:24;2.40;;;1.40;;
31037;SDS011;17702;47.590;7.666;2022-08-23T14:05:51;1.45;;;1.13;;
31037;SDS011;17702;47.590;7.666;2022-08-23T14:08:17;1.45;;;1.30;;
31037;SDS011;17702;47.590;7.666;2022-08-23T14:10:43;5.22;;;1.20;;
31037;SDS011;17702;47.590;7.666;2022-08-23T14:13:13;2.10;;;1.63;;
31037;SDS011;17702;47.590;7.666;2022-08-23T14:15:42;2.28;;;1.20;;
31037;SDS011;17702;47.590;7.666;2022-08-23T14:18:08;4.75;;;1.48;;
31037;SDS011;17702;47.590;7.666;2022-08-23T14:20:35;3.20;;;1.25;;
31037;SDS011;17702;47.590;7.666;2022-08-23T14:23:01;1.73;;;1.05;;
31037;SDS011;17702;47.590;7.666;2022-08-23T14:25:27;2.42;;;1.30;;
31037;SDS011;17702;47.590;7.666;2022-08-23T14:27:53;1.58;;;1.13;;
31037;SDS011;17702;47.590;7.666;2022-08-23T14:30:23;3.03;;;1.38;;
31037;SDS011;17702;47.590;7.666;2022-08-23T14:32:52;3.67;;;1.17;;
31037;SDS011;17702;47.590;7.666;2022-08-23T14:35:18;1.00;;;1.00;;
31037;SDS011;17702;47.590;7.666;2022-08-23T14:37:44;3.08;;;1.70;;
31037;SDS011;17702;47.590;7.666;2022-08-23T14:40:10;1.92;;;1.17;;
31037;SDS011;17702;47.590;7.666;2022-08-23T14:42:36;1.00;;;1.00;;
31037;SDS011;17702;47.590;7.666;2022-08-23T14:45:02;2.22;;;1.33;;
31037;SDS011;17702;47.590;7.666;2022-08-23T14:47:29;2.83;;;1.20;;
31037;SDS011;17702;47.590;7.666;2022-08-23T14:49:55;6.78;;;1.40;;
31037;SDS011;17702;47.590;7.666;2022-08-23T14:52:20;1.83;;;1.23;;
31037;SDS011;17702;47.590;7.666;2022-08-23T14:54:46;2.78;;;1.40;;
31037;SDS011;17702;47.590;7.666;2022-08-23T14:57:13;2.72;;;1.35;;
31037;SDS011;17702;47.590;7.666;2022-08-23T14:59:38;1.95;;;1.40;;
31037;SDS011;17702;47.590;7.666;2022-08-23T15:02:05;1.95;;;1.35;;
31037;SDS011;17702;47.590;7.666;2022-08-23T15:04:34;2.15;;;1.27;;
31037;SDS011;17702;47.590;7.666;2022-08-23T15:07:01;2.17;;;1.40;;
31037;SDS011;17702;47.590;7.666;2022-08-23T15:09:29;3.55;;;1.95;;
31037;SDS011;17702;47.590;7.666;2022-08-23T15:11:55;1.52;;;1.35;;
31037;SDS011;17702;47.590;7.666;2022-08-23T15:14:21;3.92;;;1.60;;
31037;SDS011;17702;47.590;7.666;2022-08-23T15:16:46;2.47;;;1.95;;
31037;SDS011;17702;47.590;7.666;2022-08-23T15:19:12;1.45;;;1.13;;
31037;SDS011;17702;47.590;7.666;2022-08-23T15:21:38;4.45;;;2.45;;
31037;SDS011;17702;47.590;7.666;2022-08-23T15:24:04;3.25;;;1.67;;
31037;SDS011;17702;47.590;7.666;2022-08-23T15:26:30;2.65;;;1.70;;
31037;SDS011;17702;47.590;7.666;2022-08-23T15:28:56;2.90;;;1.30;;
31037;SDS011;17702;47.590;7.666;2022-08-23T15:31:23;1.95;;;1.58;;
31037;SDS011;17702;47.590;7.666;2022-08-23T15:33:49;2.90;;;1.20;;
31037;SDS011;17702;47.590;7.666;2022-08-23T15:36:14;2.10;;;1.40;;
31037;SDS011;17702;47.590;7.666;2022-08-23T15:38:41;3.35;;;1.48;;
31037;SDS011;17702;47.590;7.666;2022-08-23T15:41:08;1.60;;;1.30;;
31037;SDS011;17702;47.590;7.666;2022-08-23T15:43:34;1.98;;;1.20;;
31037;SDS011;17702;47.590;7.666;2022-08-23T15:46:07;4.32;;;1.95;;
31037;SDS011;17702;47.590;7.666;2022-08-23T15:48:42;2.63;;;1.23;;
31037;SDS011;17702;47.590;7.666;2022-08-23T15:51:09;6.00;;;1.20;;
31037;SDS011;17702;47.590;7.666;2022-08-23T15:53:36;1.27;;;1.17;;
31037;SDS011;17702;47.590;7.666;2022-08-23T15:56:06;1.50;;;1.40;;
31037;SDS011;17702;47.590;7.666;2022-08-23T15:58:36;2.63;;;1.58;;
31037;SDS011;17702;47.590;7.666;2022-08-23T16:01:03;1.77;;;1.50;;
31037;SDS011;17702;47.590;7.666;2022-08-23T16:03:29;2.90;;;1.20;;
31037;SDS011;17702;47.590;7.666;2022-08-23T16:05:55;5.85;;;1.65;;
31037;SDS011;17702;47.590;7.666;2022-08-23T16:08:25;2.55;;;1.00;;
31037;SDS011;17702;47.590;7.666;2022-08-23T16:10:53;3.88;;;1.00;;
31037;SDS011;17702;47.590;7.666;2022-08-23T16:13:20;1.85;;;1.35;;
31037;SDS011;17702;47.590;7.666;2022-08-23T16:15:46;1.88;;;1.27;;
31037;SDS011;17702;47.590;7.666;2022-08-23T16:18:12;3.45;;;1.30;;
31037;SDS011;17702;47.590;7.666;2022-08-23T16:20:39;1.30;;;1.13;;
31037;SDS011;17702;47.590;7.666;2022-08-23T16:23:05;4.90;;;1.23;;
31037;SDS011;17702;47.590;7.666;2022-08-23T16:25:30;1.38;;;1.25;;
31037;SDS011;17702;47.590;7.666;2022-08-23T16:27:56;3.60;;;1.13;;
31037;SDS011;17702;47.590;7.666;2022-08-23T16:30:22;0.93;;;0.93;;
31037;SDS011;17702;47.590;7.666;2022-08-23T16:32:48;2.20;;;1.10;;
31037;SDS011;17702;47.590;7.666;2022-08-23T16:35:14;3.05;;;1.08;;
31037;SDS011;17702;47.590;7.666;2022-08-23T16:37:39;2.10;;;1.20;;
31037;SDS011;17702;47.590;7.666;2022-08-23T16:40:06;2.38;;;1.27;;
31037;SDS011;17702;47.590;7.666;2022-08-23T16:42:33;1.25;;;1.10;;
31037;SDS011;17702;47.590;7.666;2022-08-23T16:44:58;1.20;;;1.10;;
31037;SDS011;17702;47.590;7.666;2022-08-23T16:47:24;2.95;;;1.35;;
31037;SDS011;17702;47.590;7.666;2022-08-23T16:49:50;2.65;;;1.40;;
31037;SDS011;17702;47.590;7.666;2022-08-23T16:52:15;2.30;;;1.20;;
31037;SDS011;17702;47.590;7.666;2022-08-23T16:54:41;3.42;;;1.58;;
31037;SDS011;17702;47.590;7.666;2022-08-23T16:57:07;2.75;;;1.35;;
31037;SDS011;17702;47.590;7.666;2022-08-23T16:59:33;2.60;;;1.48;;
31037;SDS011;17702;47.590;7.666;2022-08-23T17:02:00;1.45;;;1.23;;
31037;SDS011;17702;47.590;7.666;2022-08-23T17:04:29;1.80;;;1.50;;